sensor_id;sensor_type;location;lat;lon;timestamp;P1;durP1;ratioP1;P2;durP2;ratioP2
7703;SDS011;3894;49.700;10.770;2022-10-18T00:01:42;222.75;;;213.25;;
7703;SDS011;3894;49.700;10.770;2022-10-18T00:04:07;243.25;;;232.43;;
7703;SDS011;3894;49.700;10.770;2022-10-18T00:06:33;236.32;;;225.77;;
7703;SDS011;3894;49.700;10.770;2022-10-18T00:08:58;231.05;;;220.88;;
7703;SDS011;3894;49.700;10.770;2022-10-18T00:11:24;226.77;;;217.02;;
7703;SDS011;3894;49.700;10.770;2022-10-18T00:13:49;216.38;;;207.07;;
7703;SDS011;3894;49.700;10.770;2022-10-18T00:16:15;212.35;;;203.15;;
7703;SDS011;3894;49.700;10.770;2022-10-18T00:18:42;198.38;;;189.63;;
7703;SDS011;3894;49.700;10.770;2022-10-18T00:21:12;192.52;;;184.05;;
7703;SDS011;3894;49.700;10.770;2022-10-18T00:23:40;213.73;;;204.38;;
7703;SDS011;3894;49.700;10.770;2022-10-18T00:28:39;214.80;;;205.70;;
7703;SDS011;3894;49.700;10.770;2022-10-18T00:31:19;197.65;;;189.32;;
7703;SDS011;3894;49.700;10.770;2022-10-18T00:33:48;165.43;;;158.40;;
7703;SDS011;3894;49.700;10.770;2022-10-18T00:36:16;138.23;;;132.43;;
7703;SDS011;3894;49.700;10.770;2022-10-18T00:38:42;122.90;;;117.78;;
7703;SDS011;3894;49.700;10.770;2022-10-18T00:41:10;109.80;;;104.93;;
7703;SDS011;3894;49.700;10.770;2022-10-18T00:46:27;152.43;;;145.60;;
7703;SDS011;3894;49.700;10.770;2022-10-18T00:48:58;137.35;;;131.27;;
7703;SDS011;3894;49.700;10.770;2022-10-18T00:54:12;197.90;;;189.32;;
7703;SDS011;3894;49.700;10.770;2022-10-18T00:56:38;172.75;;;165.10;;
7703;SDS011;3894;49.700;10.770;2022-10-18T00:59:04;150.23;;;143.40;;
7703;SDS011;3894;49.700;10.770;2022-10-18T01:01:31;161.60;;;154.60;;
7703;SDS011;3894;49.700;10.770;2022-10-18T01:03:57;214.95;;;205.30;;
7703;SDS011;3894;49.700;10.770;2022-10-18T01:06:26;221.68;;;211.95;;
7703;SDS011;3894;49.700;10.770;2022-10-18T01:11:37;143.00;;;136.43;;
7703;SDS011;3894;49.700;10.770;2022-10-18T01:17:20;147.77;;;141.30;;
7703;SDS011;3894;49.700;10.770;2022-10-18T01:23:03;171.63;;;164.00;;
7703;SDS011;3894;49.700;10.770;2022-10-18T01:31:07;174.32;;;166.18;;
7703;SDS011;3894;49.700;10.770;2022-10-18T01:33:41;200.07;;;190.73;;
7703;SDS011;3894;49.700;10.770;2022-10-18T01:36:17;212.65;;;202.73;;
7703;SDS011;3894;49.700;10.770;2022-10-18T01:38:51;213.00;;;203.07;;
7703;SDS011;3894;49.700;10.770;2022-10-18T01:41:20;210.80;;;200.75;;
7703;SDS011;3894;49.700;10.770;2022-10-18T01:43:49;200.45;;;191.18;;
7703;SDS011;3894;49.700;10.770;2022-10-18T01:46:18;200.32;;;191.32;;
7703;SDS011;3894;49.700;10.770;2022-10-18T01:48:46;149.23;;;142.60;;
7703;SDS011;3894;49.700;10.770;2022-10-18T01:51:12;122.03;;;116.35;;
7703;SDS011;3894;49.700;10.770;2022-10-18T01:53:37;148.20;;;141.60;;
7703;SDS011;3894;49.700;10.770;2022-10-18T02:04:47;251.23;;;239.60;;
7703;SDS011;3894;49.700;10.770;2022-10-18T02:10:09;259.13;;;246.85;;
7703;SDS011;3894;49.700;10.770;2022-10-18T02:12:39;240.00;;;228.80;;
7703;SDS011;3894;49.700;10.770;2022-10-18T02:15:08;221.70;;;211.52;;
7703;SDS011;3894;49.700;10.770;2022-10-18T02:17:37;239.65;;;228.60;;
7703;SDS011;3894;49.700;10.770;2022-10-18T02:20:04;282.58;;;269.27;;
7703;SDS011;3894;49.700;10.770;2022-10-18T02:22:32;257.10;;;245.18;;
7703;SDS011;3894;49.700;10.770;2022-10-18T02:25:01;257.08;;;244.90;;
7703;SDS011;3894;49.700;10.770;2022-10-18T02:27:30;239.40;;;228.30;;
7703;SDS011;3894;49.700;10.770;2022-10-18T02:29:56;225.40;;;214.93;;
7703;SDS011;3894;49.700;10.770;2022-10-18T02:33:25;215.60;;;205.32;;
7703;SDS011;3894;49.700;10.770;2022-10-18T02:35:25;230.80;;;219.95;;
7703;SDS011;3894;49.700;10.770;2022-10-18T02:37:54;218.38;;;208.27;;
7703;SDS011;3894;49.700;10.770;2022-10-18T02:40:22;214.38;;;204.50;;
7703;SDS011;3894;49.700;10.770;2022-10-18T02:42:50;174.50;;;166.00;;
7703;SDS011;3894;49.700;10.770;2022-10-18T02:45:19;198.25;;;189.05;;
7703;SDS011;3894;49.700;10.770;2022-10-18T02:47:45;214.02;;;204.02;;
7703;SDS011;3894;49.700;10.770;2022-10-18T02:50:11;210.32;;;200.82;;
7703;SDS011;3894;49.700;10.770;2022-10-18T02:52:37;200.32;;;191.38;;
7703;SDS011;3894;49.700;10.770;2022-10-18T02:55:03;177.27;;;169.15;;
7703;SDS011;3894;49.700;10.770;2022-10-18T02:57:30;201.80;;;192.73;;
7703;SDS011;3894;49.700;10.770;2022-10-18T02:59:55;191.25;;;182.63;;
7703;SDS011;3894;49.700;10.770;2022-10-18T03:02:21;241.23;;;229.98;;
7703;SDS011;3894;49.700;10.770;2022-10-18T03:04:46;221.13;;;210.57;;
7703;SDS011;3894;49.700;10.770;2022-10-18T03:07:12;228.35;;;217.90;;
7703;SDS011;3894;49.700;10.770;2022-10-18T03:09:37;251.05;;;239.45;;
7703;SDS011;3894;49.700;10.770;2022-10-18T03:12:03;286.00;;;272.42;;
7703;SDS011;3894;49.700;10.770;2022-10-18T03:14:29;275.42;;;262.55;;
7703;SDS011;3894;49.700;10.770;2022-10-18T03:16:54;279.45;;;266.23;;
7703;SDS011;3894;49.700;10.770;2022-10-18T03:19:20;276.60;;;263.45;;
7703;SDS011;3894;49.700;10.770;2022-10-18T03:21:45;280.38;;;267.02;;
7703;SDS011;3894;49.700;10.770;2022-10-18T03:24:11;291.73;;;278.00;;
7703;SDS011;3894;49.700;10.770;2022-10-18T03:26:36;271.80;;;258.85;;
7703;SDS011;3894;49.700;10.770;2022-10-18T03:29:03;255.90;;;244.18;;
7703;SDS011;3894;49.700;10.770;2022-10-18T03:31:28;262.30;;;250.05;;
7703;SDS011;3894;49.700;10.770;2022-10-18T03:33:54;259.98;;;247.80;;
7703;SDS011;3894;49.700;10.770;2022-10-18T03:36:19;271.92;;;259.05;;
7703;SDS011;3894;49.700;10.770;2022-10-18T03:38:45;280.83;;;267.55;;
7703;SDS011;3894;49.700;10.770;2022-10-18T03:41:10;270.98;;;258.20;;
7703;SDS011;3894;49.700;10.770;2022-10-18T03:43:36;255.50;;;243.18;;
7703;SDS011;3894;49.700;10.770;2022-10-18T03:46:02;262.20;;;249.43;;
7703;SDS011;3894;49.700;10.770;2022-10-18T03:48:27;255.50;;;242.55;;
7703;SDS011;3894;49.700;10.770;2022-10-18T03:50:53;259.77;;;247.30;;
7703;SDS011;3894;49.700;10.770;2022-10-18T03:53:18;253.65;;;241.48;;
7703;SDS011;3894;49.700;10.770;2022-10-18T03:55:48;232.77;;;221.68;;
7703;SDS011;3894;49.700;10.770;2022-10-18T03:58:15;205.53;;;196.10;;
7703;SDS011;3894;49.700;10.770;2022-10-18T04:00:40;188.27;;;179.43;;
7703;SDS011;3894;49.700;10.770;2022-10-18T04:03:06;188.02;;;179.43;;
7703;SDS011;3894;49.700;10.770;2022-10-18T04:05:32;165.35;;;157.70;;
7703;SDS011;3894;49.700;10.770;2022-10-18T04:07:58;180.70;;;172.43;;
7703;SDS011;3894;49.700;10.770;2022-10-18T04:10:24;199.88;;;190.68;;
7703;SDS011;3894;49.700;10.770;2022-10-18T04:12:50;218.48;;;208.15;;
7703;SDS011;3894;49.700;10.770;2022-10-18T04:15:15;208.30;;;198.35;;
7703;SDS011;3894;49.700;10.770;2022-10-18T04:17:41;200.55;;;191.07;;
7703;SDS011;3894;49.700;10.770;2022-10-18T04:20:06;200.35;;;190.90;;
7703;SDS011;3894;49.700;10.770;2022-10-18T04:22:32;211.50;;;201.73;;
7703;SDS011;3894;49.700;10.770;2022-10-18T04:24:58;227.15;;;216.30;;
7703;SDS011;3894;49.700;10.770;2022-10-18T04:27:23;210.60;;;200.60;;
7703;SDS011;3894;49.700;10.770;2022-10-18T04:29:49;208.68;;;198.88;;
7703;SDS011;3894;49.700;10.770;2022-10-18T04:32:15;236.60;;;225.45;;
7703;SDS011;3894;49.700;10.770;2022-10-18T04:34:40;212.73;;;202.85;;
7703;SDS011;3894;49.700;10.770;2022-10-18T04:37:06;249.27;;;237.77;;
7703;SDS011;3894;49.700;10.770;2022-10-18T04:39:31;248.75;;;236.68;;
7703;SDS011;3894;49.700;10.770;2022-10-18T04:41:57;264.40;;;252.07;;
7703;SDS011;3894;49.700;10.770;2022-10-18T04:44:22;293.08;;;278.98;;
7703;SDS011;3894;49.700;10.770;2022-10-18T04:46:48;276.60;;;263.45;;
7703;SDS011;3894;49.700;10.770;2022-10-18T04:49:13;271.92;;;258.75;;
7703;SDS011;3894;49.700;10.770;2022-10-18T04:51:39;250.07;;;237.95;;
7703;SDS011;3894;49.700;10.770;2022-10-18T04:54:04;282.23;;;268.38;;
7703;SDS011;3894;49.700;10.770;2022-10-18T04:56:30;233.30;;;222.73;;
7703;SDS011;3894;49.700;10.770;2022-10-18T04:58:56;205.30;;;195.98;;
7703;SDS011;3894;49.700;10.770;2022-10-18T05:01:22;182.57;;;173.93;;
7703;SDS011;3894;49.700;10.770;2022-10-18T05:03:50;201.70;;;192.45;;
7703;SDS011;3894;49.700;10.770;2022-10-18T05:06:20;180.43;;;172.27;;
7703;SDS011;3894;49.700;10.770;2022-10-18T05:08:46;184.27;;;175.82;;
7703;SDS011;3894;49.700;10.770;2022-10-18T05:11:11;166.15;;;158.48;;
7703;SDS011;3894;49.700;10.770;2022-10-18T05:13:37;168.15;;;160.38;;
7703;SDS011;3894;49.700;10.770;2022-10-18T05:16:03;173.43;;;165.30;;
7703;SDS011;3894;49.700;10.770;2022-10-18T05:18:29;187.07;;;178.45;;
7703;SDS011;3894;49.700;10.770;2022-10-18T05:20:55;175.75;;;167.65;;
7703;SDS011;3894;49.700;10.770;2022-10-18T05:23:21;177.55;;;169.30;;
7703;SDS011;3894;49.700;10.770;2022-10-18T05:25:46;179.93;;;171.52;;
7703;SDS011;3894;49.700;10.770;2022-10-18T05:28:12;181.05;;;172.50;;
7703;SDS011;3894;49.700;10.770;2022-10-18T05:30:38;168.80;;;160.35;;
7703;SDS011;3894;49.700;10.770;2022-10-18T05:33:05;173.43;;;164.98;;
7703;SDS011;3894;49.700;10.770;2022-10-18T05:35:30;181.23;;;172.20;;
7703;SDS011;3894;49.700;10.770;2022-10-18T05:37:56;187.93;;;178.63;;
7703;SDS011;3894;49.700;10.770;2022-10-18T05:40:21;192.52;;;183.45;;
7703;SDS011;3894;49.700;10.770;2022-10-18T05:42:50;177.50;;;169.05;;
7703;SDS011;3894;49.700;10.770;2022-10-18T05:45:16;183.80;;;174.85;;
7703;SDS011;3894;49.700;10.770;2022-10-18T05:47:41;193.40;;;183.70;;
7703;SDS011;3894;49.700;10.770;2022-10-18T05:50:07;177.88;;;169.55;;
7703;SDS011;3894;49.700;10.770;2022-10-18T05:52:33;170.00;;;162.40;;
7703;SDS011;3894;49.700;10.770;2022-10-18T05:54:58;192.05;;;183.07;;
7703;SDS011;3894;49.700;10.770;2022-10-18T05:57:24;195.68;;;186.52;;
7703;SDS011;3894;49.700;10.770;2022-10-18T05:59:50;184.02;;;175.35;;
7703;SDS011;3894;49.700;10.770;2022-10-18T06:02:15;204.57;;;194.68;;
7703;SDS011;3894;49.700;10.770;2022-10-18T06:04:41;196.00;;;186.23;;
7703;SDS011;3894;49.700;10.770;2022-10-18T06:07:07;189.55;;;179.52;;
7703;SDS011;3894;49.700;10.770;2022-10-18T06:09:33;184.98;;;175.85;;
7703;SDS011;3894;49.700;10.770;2022-10-18T06:11:59;188.87;;;179.93;;
7703;SDS011;3894;49.700;10.770;2022-10-18T06:14:24;200.40;;;190.77;;
7703;SDS011;3894;49.700;10.770;2022-10-18T06:16:50;212.55;;;202.60;;
7703;SDS011;3894;49.700;10.770;2022-10-18T06:19:16;215.85;;;205.55;;
7703;SDS011;3894;49.700;10.770;2022-10-18T06:21:42;198.05;;;188.63;;
7703;SDS011;3894;49.700;10.770;2022-10-18T06:24:08;186.80;;;177.70;;
7703;SDS011;3894;49.700;10.770;2022-10-18T06:26:33;191.52;;;182.30;;
7703;SDS011;3894;49.700;10.770;2022-10-18T06:28:59;180.65;;;171.90;;
7703;SDS011;3894;49.700;10.770;2022-10-18T06:31:24;181.73;;;173.20;;
7703;SDS011;3894;49.700;10.770;2022-10-18T06:33:50;168.77;;;160.50;;
7703;SDS011;3894;49.700;10.770;2022-10-18T06:36:17;162.73;;;155.02;;
7703;SDS011;3894;49.700;10.770;2022-10-18T06:38:49;169.15;;;161.30;;
7703;SDS011;3894;49.700;10.770;2022-10-18T06:41:15;172.55;;;164.60;;
7703;SDS011;3894;49.700;10.770;2022-10-18T06:43:41;180.20;;;171.32;;
7703;SDS011;3894;49.700;10.770;2022-10-18T06:46:08;198.88;;;189.13;;
7703;SDS011;3894;49.700;10.770;2022-10-18T06:48:34;227.63;;;216.85;;
7703;SDS011;3894;49.700;10.770;2022-10-18T06:51:01;219.57;;;208.93;;
7703;SDS011;3894;49.700;10.770;2022-10-18T06:53:29;226.65;;;215.57;;
7703;SDS011;3894;49.700;10.770;2022-10-18T06:56:00;215.52;;;204.95;;
7703;SDS011;3894;49.700;10.770;2022-10-18T06:58:26;239.63;;;227.93;;
7703;SDS011;3894;49.700;10.770;2022-10-18T07:00:52;235.20;;;223.90;;
7703;SDS011;3894;49.700;10.770;2022-10-18T07:03:18;248.30;;;236.70;;
7703;SDS011;3894;49.700;10.770;2022-10-18T07:05:45;242.75;;;230.93;;
7703;SDS011;3894;49.700;10.770;2022-10-18T07:08:12;272.00;;;258.80;;
7703;SDS011;3894;49.700;10.770;2022-10-18T07:10:37;230.68;;;219.15;;
7703;SDS011;3894;49.700;10.770;2022-10-18T07:13:03;194.30;;;184.88;;
7703;SDS011;3894;49.700;10.770;2022-10-18T07:15:29;219.75;;;208.93;;
7703;SDS011;3894;49.700;10.770;2022-10-18T07:17:54;212.98;;;202.68;;
7703;SDS011;3894;49.700;10.770;2022-10-18T07:20:20;226.82;;;215.73;;
7703;SDS011;3894;49.700;10.770;2022-10-18T07:22:45;249.63;;;237.02;;
7703;SDS011;3894;49.700;10.770;2022-10-18T07:25:11;236.25;;;224.88;;
7703;SDS011;3894;49.700;10.770;2022-10-18T07:27:37;239.02;;;227.65;;
7703;SDS011;3894;49.700;10.770;2022-10-18T07:30:05;248.68;;;237.02;;
7703;SDS011;3894;49.700;10.770;2022-10-18T07:32:32;240.75;;;229.25;;
7703;SDS011;3894;49.700;10.770;2022-10-18T07:34:58;214.55;;;204.48;;
7703;SDS011;3894;49.700;10.770;2022-10-18T07:37:23;209.98;;;199.95;;
7703;SDS011;3894;49.700;10.770;2022-10-18T07:39:49;212.77;;;203.20;;
7703;SDS011;3894;49.700;10.770;2022-10-18T07:42:14;185.70;;;177.10;;
7703;SDS011;3894;49.700;10.770;2022-10-18T07:44:40;201.13;;;191.98;;
7703;SDS011;3894;49.700;10.770;2022-10-18T07:47:05;189.40;;;180.93;;
7703;SDS011;3894;49.700;10.770;2022-10-18T07:49:31;188.95;;;180.38;;
7703;SDS011;3894;49.700;10.770;2022-10-18T07:51:56;166.82;;;159.15;;
7703;SDS011;3894;49.700;10.770;2022-10-18T07:54:22;172.57;;;164.38;;
7703;SDS011;3894;49.700;10.770;2022-10-18T07:56:48;166.48;;;158.55;;
7703;SDS011;3894;49.700;10.770;2022-10-18T07:59:13;172.90;;;164.52;;
7703;SDS011;3894;49.700;10.770;2022-10-18T08:01:38;182.32;;;173.73;;
7703;SDS011;3894;49.700;10.770;2022-10-18T08:04:04;184.65;;;176.07;;
7703;SDS011;3894;49.700;10.770;2022-10-18T08:06:30;190.25;;;181.50;;
7703;SDS011;3894;49.700;10.770;2022-10-18T08:08:55;206.23;;;196.80;;
7703;SDS011;3894;49.700;10.770;2022-10-18T08:11:22;189.85;;;181.05;;
7703;SDS011;3894;49.700;10.770;2022-10-18T08:13:48;176.88;;;168.57;;
7703;SDS011;3894;49.700;10.770;2022-10-18T08:16:17;181.35;;;172.90;;
7703;SDS011;3894;49.700;10.770;2022-10-18T08:18:44;182.20;;;173.75;;
7703;SDS011;3894;49.700;10.770;2022-10-18T08:21:11;176.98;;;168.57;;
7703;SDS011;3894;49.700;10.770;2022-10-18T08:23:37;181.82;;;173.30;;
7703;SDS011;3894;49.700;10.770;2022-10-18T08:26:04;188.73;;;179.95;;
7703;SDS011;3894;49.700;10.770;2022-10-18T08:28:33;195.75;;;186.57;;
7703;SDS011;3894;49.700;10.770;2022-10-18T08:31:12;187.48;;;178.60;;
7703;SDS011;3894;49.700;10.770;2022-10-18T08:33:41;185.82;;;176.95;;
7703;SDS011;3894;49.700;10.770;2022-10-18T08:36:07;187.07;;;178.48;;
7703;SDS011;3894;49.700;10.770;2022-10-18T08:38:36;190.80;;;181.93;;
7703;SDS011;3894;49.700;10.770;2022-10-18T08:46:31;198.52;;;189.10;;
7703;SDS011;3894;49.700;10.770;2022-10-18T08:48:59;211.38;;;201.48;;
7703;SDS011;3894;49.700;10.770;2022-10-18T08:51:38;193.95;;;184.73;;
7703;SDS011;3894;49.700;10.770;2022-10-18T08:54:11;190.68;;;181.88;;
7703;SDS011;3894;49.700;10.770;2022-10-18T08:56:40;168.07;;;160.45;;
7703;SDS011;3894;49.700;10.770;2022-10-18T08:59:09;164.00;;;156.40;;
7703;SDS011;3894;49.700;10.770;2022-10-18T09:04:29;170.63;;;162.65;;
7703;SDS011;3894;49.700;10.770;2022-10-18T09:07:26;152.77;;;145.70;;
7703;SDS011;3894;49.700;10.770;2022-10-18T09:13:26;152.77;;;145.55;;
7703;SDS011;3894;49.700;10.770;2022-10-18T09:16:09;151.35;;;144.40;;
7703;SDS011;3894;49.700;10.770;2022-10-18T09:18:54;136.45;;;129.98;;
7703;SDS011;3894;49.700;10.770;2022-10-18T09:21:28;139.00;;;132.35;;
7703;SDS011;3894;49.700;10.770;2022-10-18T09:26:41;129.23;;;123.25;;
7703;SDS011;3894;49.700;10.770;2022-10-18T09:37:49;131.93;;;125.68;;
7703;SDS011;3894;49.700;10.770;2022-10-18T09:40:21;137.68;;;131.52;;
7703;SDS011;3894;49.700;10.770;2022-10-18T09:42:58;143.77;;;136.82;;
7703;SDS011;3894;49.700;10.770;2022-10-18T09:45:30;153.43;;;146.02;;
7703;SDS011;3894;49.700;10.770;2022-10-18T09:48:03;145.18;;;138.50;;
7703;SDS011;3894;49.700;10.770;2022-10-18T09:50:47;142.32;;;135.77;;
7703;SDS011;3894;49.700;10.770;2022-10-18T09:53:29;122.45;;;116.32;;
7703;SDS011;3894;49.700;10.770;2022-10-18T09:56:16;148.05;;;140.90;;
7703;SDS011;3894;49.700;10.770;2022-10-18T09:58:48;153.73;;;146.65;;
7703;SDS011;3894;49.700;10.770;2022-10-18T10:01:20;158.93;;;151.57;;
7703;SDS011;3894;49.700;10.770;2022-10-18T10:03:48;142.95;;;136.57;;
7703;SDS011;3894;49.700;10.770;2022-10-18T10:06:15;142.68;;;136.25;;
7703;SDS011;3894;49.700;10.770;2022-10-18T10:11:24;127.93;;;121.90;;
7703;SDS011;3894;49.700;10.770;2022-10-18T10:13:51;123.05;;;117.50;;
7703;SDS011;3894;49.700;10.770;2022-10-18T10:16:22;120.72;;;115.10;;
7703;SDS011;3894;49.700;10.770;2022-10-18T10:18:51;240.85;;;229.13;;
7703;SDS011;3894;49.700;10.770;2022-10-18T10:21:18;276.20;;;262.52;;
7703;SDS011;3894;49.700;10.770;2022-10-18T10:23:45;268.15;;;255.95;;
7703;SDS011;3894;49.700;10.770;2022-10-18T10:28:51;196.68;;;187.13;;
7703;SDS011;3894;49.700;10.770;2022-10-18T10:34:03;161.23;;;153.70;;
7703;SDS011;3894;49.700;10.770;2022-10-18T10:36:48;188.75;;;179.50;;
7703;SDS011;3894;49.700;10.770;2022-10-18T10:39:15;188.95;;;180.30;;
7703;SDS011;3894;49.700;10.770;2022-10-18T10:41:50;276.35;;;262.17;;
7703;SDS011;3894;49.700;10.770;2022-10-18T10:44:18;289.63;;;274.77;;
7703;SDS011;3894;49.700;10.770;2022-10-18T10:46:45;233.35;;;222.07;;
7703;SDS011;3894;49.700;10.770;2022-10-18T10:49:23;199.95;;;190.63;;
7703;SDS011;3894;49.700;10.770;2022-10-18T10:51:54;181.88;;;173.48;;
7703;SDS011;3894;49.700;10.770;2022-10-18T10:54:21;206.40;;;196.15;;
7703;SDS011;3894;49.700;10.770;2022-10-18T11:01:48;148.60;;;141.88;;
7703;SDS011;3894;49.700;10.770;2022-10-18T11:04:35;161.98;;;154.60;;
7703;SDS011;3894;49.700;10.770;2022-10-18T11:14:42;205.00;;;195.30;;
7703;SDS011;3894;49.700;10.770;2022-10-18T11:22:32;298.98;;;284.65;;
7703;SDS011;3894;49.700;10.770;2022-10-18T11:25:04;204.18;;;194.13;;
7703;SDS011;3894;49.700;10.770;2022-10-18T11:32:33;206.38;;;196.25;;
7703;SDS011;3894;49.700;10.770;2022-10-18T11:37:43;195.15;;;185.80;;
7703;SDS011;3894;49.700;10.770;2022-10-18T11:40:24;138.77;;;132.50;;
7703;SDS011;3894;49.700;10.770;2022-10-18T11:43:16;165.48;;;157.48;;
7703;SDS011;3894;49.700;10.770;2022-10-18T11:46:05;196.07;;;186.43;;
7703;SDS011;3894;49.700;10.770;2022-10-18T11:56:59;280.40;;;266.10;;
7703;SDS011;3894;49.700;10.770;2022-10-18T12:05:25;217.20;;;206.23;;
7703;SDS011;3894;49.700;10.770;2022-10-18T12:10:22;167.20;;;158.55;;
7703;SDS011;3894;49.700;10.770;2022-10-18T12:12:53;154.60;;;147.18;;
7703;SDS011;3894;49.700;10.770;2022-10-18T12:15:25;273.95;;;260.30;;
7703;SDS011;3894;49.700;10.770;2022-10-18T12:17:54;311.48;;;296.10;;
7703;SDS011;3894;49.700;10.770;2022-10-18T12:20:35;287.80;;;273.40;;
7703;SDS011;3894;49.700;10.770;2022-10-18T12:25:55;216.60;;;206.30;;
7703;SDS011;3894;49.700;10.770;2022-10-18T12:33:57;228.88;;;217.23;;
7703;SDS011;3894;49.700;10.770;2022-10-18T12:36:30;169.57;;;161.98;;
7703;SDS011;3894;49.700;10.770;2022-10-18T12:42:41;191.60;;;181.95;;
7703;SDS011;3894;49.700;10.770;2022-10-18T12:48:00;196.27;;;186.43;;
7703;SDS011;3894;49.700;10.770;2022-10-18T12:50:30;302.80;;;287.23;;
7703;SDS011;3894;49.700;10.770;2022-10-18T12:53:11;225.80;;;214.10;;
7703;SDS011;3894;49.700;10.770;2022-10-18T12:55:43;237.95;;;225.25;;
7703;SDS011;3894;49.700;10.770;2022-10-18T13:16:46;202.93;;;192.15;;
7703;SDS011;3894;49.700;10.770;2022-10-18T13:25:27;194.77;;;184.93;;
7703;SDS011;3894;49.700;10.770;2022-10-18T13:33:15;200.27;;;189.95;;
7703;SDS011;3894;49.700;10.770;2022-10-18T13:35:55;141.57;;;134.38;;
7703;SDS011;3894;49.700;10.770;2022-10-18T13:38:36;198.25;;;187.25;;
7703;SDS011;3894;49.700;10.770;2022-10-18T13:41:05;156.05;;;149.07;;
7703;SDS011;3894;49.700;10.770;2022-10-18T13:44:16;187.52;;;178.65;;
7703;SDS011;3894;49.700;10.770;2022-10-18T14:10:55;131.90;;;125.22;;
7703;SDS011;3894;49.700;10.770;2022-10-18T14:13:47;131.68;;;125.13;;
7703;SDS011;3894;49.700;10.770;2022-10-18T14:22:21;173.05;;;164.85;;
7703;SDS011;3894;49.700;10.770;2022-10-18T14:24:52;180.93;;;172.40;;
7703;SDS011;3894;49.700;10.770;2022-10-18T14:27:23;127.93;;;121.65;;
7703;SDS011;3894;49.700;10.770;2022-10-18T14:30:05;178.70;;;170.20;;
7703;SDS011;3894;49.700;10.770;2022-10-18T14:32:46;165.52;;;157.95;;
7703;SDS011;3894;49.700;10.770;2022-10-18T14:35:36;149.70;;;141.88;;
7703;SDS011;3894;49.700;10.770;2022-10-18T14:38:01;164.88;;;156.77;;
7703;SDS011;3894;49.700;10.770;2022-10-18T14:40:34;163.88;;;156.40;;
7703;SDS011;3894;49.700;10.770;2022-10-18T14:43:10;152.52;;;145.13;;
7703;SDS011;3894;49.700;10.770;2022-10-18T14:45:37;144.80;;;137.85;;
7703;SDS011;3894;49.700;10.770;2022-10-18T14:48:24;222.63;;;210.82;;
7703;SDS011;3894;49.700;10.770;2022-10-18T14:50:53;178.32;;;169.77;;
7703;SDS011;3894;49.700;10.770;2022-10-18T14:53:23;182.20;;;173.77;;
7703;SDS011;3894;49.700;10.770;2022-10-18T14:55:53;200.30;;;190.70;;
7703;SDS011;3894;49.700;10.770;2022-10-18T14:58:20;207.32;;;197.45;;
7703;SDS011;3894;49.700;10.770;2022-10-18T15:00:46;217.40;;;206.88;;
7703;SDS011;3894;49.700;10.770;2022-10-18T15:03:13;203.13;;;193.55;;
7703;SDS011;3894;49.700;10.770;2022-10-18T15:08:43;188.45;;;179.73;;
7703;SDS011;3894;49.700;10.770;2022-10-18T15:11:10;191.55;;;182.40;;
7703;SDS011;3894;49.700;10.770;2022-10-18T15:13:48;210.65;;;200.60;;
7703;SDS011;3894;49.700;10.770;2022-10-18T15:16:18;223.77;;;212.77;;
7703;SDS011;3894;49.700;10.770;2022-10-18T15:19:06;217.90;;;206.98;;
7703;SDS011;3894;49.700;10.770;2022-10-18T15:22:02;175.50;;;167.07;;
7703;SDS011;3894;49.700;10.770;2022-10-18T15:26:59;203.85;;;194.18;;
7703;SDS011;3894;49.700;10.770;2022-10-18T15:29:43;200.23;;;190.60;;
7703;SDS011;3894;49.700;10.770;2022-10-18T15:32:19;220.68;;;209.90;;
7703;SDS011;3894;49.700;10.770;2022-10-18T15:34:48;224.85;;;214.13;;
7703;SDS011;3894;49.700;10.770;2022-10-18T15:37:57;220.18;;;209.65;;
7703;SDS011;3894;49.700;10.770;2022-10-18T15:42:47;202.15;;;192.43;;
7703;SDS011;3894;49.700;10.770;2022-10-18T15:48:13;185.35;;;176.52;;
7703;SDS011;3894;49.700;10.770;2022-10-18T15:50:55;207.38;;;197.25;;
7703;SDS011;3894;49.700;10.770;2022-10-18T15:53:44;224.75;;;213.82;;
7703;SDS011;3894;49.700;10.770;2022-10-18T15:56:26;229.27;;;218.10;;
7703;SDS011;3894;49.700;10.770;2022-10-18T15:58:57;217.45;;;207.35;;
7703;SDS011;3894;49.700;10.770;2022-10-18T16:01:36;201.50;;;191.85;;
7703;SDS011;3894;49.700;10.770;2022-10-18T16:04:12;213.60;;;203.50;;
7703;SDS011;3894;49.700;10.770;2022-10-18T16:06:44;192.27;;;183.20;;
7703;SDS011;3894;49.700;10.770;2022-10-18T16:09:14;239.48;;;226.82;;
7703;SDS011;3894;49.700;10.770;2022-10-18T16:11:41;237.68;;;226.43;;
7703;SDS011;3894;49.700;10.770;2022-10-18T16:14:07;211.90;;;201.82;;
7703;SDS011;3894;49.700;10.770;2022-10-18T16:16:33;226.10;;;215.40;;
7703;SDS011;3894;49.700;10.770;2022-10-18T16:18:59;217.45;;;206.93;;
7703;SDS011;3894;49.700;10.770;2022-10-18T16:21:35;205.82;;;196.10;;
7703;SDS011;3894;49.700;10.770;2022-10-18T16:24:02;212.13;;;202.20;;
7703;SDS011;3894;49.700;10.770;2022-10-18T16:26:28;229.00;;;218.20;;
7703;SDS011;3894;49.700;10.770;2022-10-18T16:28:54;227.75;;;216.82;;
7703;SDS011;3894;49.700;10.770;2022-10-18T16:31:22;203.05;;;193.32;;
7703;SDS011;3894;49.700;10.770;2022-10-18T16:33:50;236.90;;;225.32;;
7703;SDS011;3894;49.700;10.770;2022-10-18T16:36:19;221.40;;;210.82;;
7703;SDS011;3894;49.700;10.770;2022-10-18T16:38:47;224.52;;;213.60;;
7703;SDS011;3894;49.700;10.770;2022-10-18T16:41:13;236.88;;;225.20;;
7703;SDS011;3894;49.700;10.770;2022-10-18T16:43:40;221.18;;;210.25;;
7703;SDS011;3894;49.700;10.770;2022-10-18T16:46:09;237.48;;;225.85;;
7703;SDS011;3894;49.700;10.770;2022-10-18T16:48:39;222.52;;;211.85;;
7703;SDS011;3894;49.700;10.770;2022-10-18T16:51:04;204.05;;;194.32;;
7703;SDS011;3894;49.700;10.770;2022-10-18T16:53:30;221.68;;;211.15;;
7703;SDS011;3894;49.700;10.770;2022-10-18T16:55:57;225.55;;;214.75;;
7703;SDS011;3894;49.700;10.770;2022-10-18T16:58:25;217.82;;;207.45;;
7703;SDS011;3894;49.700;10.770;2022-10-18T17:00:52;223.38;;;212.52;;
7703;SDS011;3894;49.700;10.770;2022-10-18T17:03:18;227.25;;;216.38;;
7703;SDS011;3894;49.700;10.770;2022-10-18T17:05:44;213.38;;;203.02;;
7703;SDS011;3894;49.700;10.770;2022-10-18T17:08:17;230.23;;;218.98;;
7703;SDS011;3894;49.700;10.770;2022-10-18T17:10:45;237.73;;;226.30;;
7703;SDS011;3894;49.700;10.770;2022-10-18T17:13:13;228.48;;;216.05;;
7703;SDS011;3894;49.700;10.770;2022-10-18T17:15:40;235.52;;;221.27;;
7703;SDS011;3894;49.700;10.770;2022-10-18T17:18:09;221.35;;;210.48;;
7703;SDS011;3894;49.700;10.770;2022-10-18T17:20:36;211.45;;;201.30;;
7703;SDS011;3894;49.700;10.770;2022-10-18T17:23:02;202.32;;;192.40;;
7703;SDS011;3894;49.700;10.770;2022-10-18T17:25:28;218.40;;;207.50;;
7703;SDS011;3894;49.700;10.770;2022-10-18T17:27:53;204.70;;;195.40;;
7703;SDS011;3894;49.700;10.770;2022-10-18T17:30:19;217.05;;;207.13;;
7703;SDS011;3894;49.700;10.770;2022-10-18T17:32:45;204.93;;;195.48;;
7703;SDS011;3894;49.700;10.770;2022-10-18T17:35:11;208.48;;;198.90;;